createdAt,value
2022-12-16T00:01:17.522Z,-3.00
2022-12-16T00:03:49.167Z,-3.00
2022-12-16T00:06:21.096Z,-3.00
2022-12-16T00:08:50.410Z,-3.10
2022-12-16T00:11:20.576Z,-3.10
2022-12-16T00:13:48.812Z,-3.10
2022-12-16T00:16:18.664Z,-3.20
2022-12-16T00:18:48.490Z,-3.20
2022-12-16T00:21:18.450Z,-3.20
2022-12-16T00:23:46.847Z,-3.20
2022-12-16T00:26:16.185Z,-3.30
2022-12-16T00:28:44.257Z,-3.30
2022-12-16T00:31:12.610Z,-3.40
2022-12-16T00:33:40.791Z,-3.40
2022-12-16T00:36:09.784Z,-3.40
2022-12-16T00:38:37.895Z,-3.40
2022-12-16T00:41:06.052Z,-3.40
2022-12-16T00:43:35.532Z,-3.40
2022-12-16T00:46:04.005Z,-3.40
2022-12-16T00:48:32.015Z,-3.40
2022-12-16T00:51:00.230Z,-3.40
2022-12-16T00:53:28.399Z,-3.40
2022-12-16T00:56:04.064Z,-3.40
2022-12-16T00:58:32.184Z,-3.40
2022-12-16T01:01:01.824Z,-3.40
2022-12-16T01:03:30.364Z,-3.40
2022-12-16T01:05:58.502Z,-3.50
2022-12-16T01:08:26.505Z,-3.60
2022-12-16T01:10:59.995Z,-3.60
2022-12-16T01:13:28.263Z,-3.70
2022-12-16T01:15:56.393Z,-3.70
2022-12-16T01:18:25.733Z,-3.80
2022-12-16T01:20:53.666Z,-3.80
2022-12-16T01:23:22.871Z,-3.90
2022-12-16T01:25:55.196Z,-4.00
2022-12-16T01:28:23.181Z,-4.10
2022-12-16T01:30:55.429Z,-4.10
2022-12-16T01:33:24.707Z,-4.20
2022-12-16T01:36:00.085Z,-4.30
2022-12-16T01:38:28.153Z,-4.40
2022-12-16T01:40:56.050Z,-4.40
2022-12-16T01:43:27.114Z,-4.50
2022-12-16T01:45:59.768Z,-4.60
2022-12-16T01:48:39.895Z,-4.70
2022-12-16T01:51:10.943Z,-4.70
2022-12-16T01:53:43.418Z,-4.80
2022-12-16T01:56:13.740Z,-4.80
2022-12-16T01:58:43.543Z,-4.90
2022-12-16T02:01:11.590Z,-4.90
2022-12-16T02:03:41.661Z,-4.90
2022-12-16T02:06:09.715Z,-4.90
2022-12-16T02:08:37.661Z,-4.80
2022-12-16T02:11:21.882Z,-4.70
2022-12-16T02:14:07.358Z,-4.70
2022-12-16T02:16:47.680Z,-4.70
2022-12-16T02:19:44.298Z,-4.60
2022-12-16T02:22:26.976Z,-4.70
2022-12-16T02:25:34.146Z,-4.60
2022-12-16T02:28:09.508Z,-4.70
2022-12-16T02:31:07.616Z,-4.70
2022-12-16T02:33:59.093Z,-4.70
2022-12-16T02:36:38.841Z,-4.70
2022-12-16T02:39:13.623Z,-4.70
2022-12-16T02:41:47.745Z,-4.70
2022-12-16T02:44:18.401Z,-4.70
2022-12-16T02:46:55.853Z,-4.70
2022-12-16T02:49:50.122Z,-4.70
2022-12-16T02:52:21.413Z,-4.70
2022-12-16T02:54:51.414Z,-4.80
2022-12-16T02:57:51.164Z,-4.80
2022-12-16T03:00:21.978Z,-4.80
2022-12-16T03:02:57.505Z,-4.80
2022-12-16T03:05:31.203Z,-4.70
2022-12-16T03:08:02.752Z,-4.70
2022-12-16T03:10:36.971Z,-4.70
2022-12-16T03:13:06.980Z,-4.70
2022-12-16T03:15:36.490Z,-4.70
2022-12-16T03:18:08.773Z,-4.80
2022-12-16T03:20:40.980Z,-4.80
2022-12-16T03:23:18.051Z,-4.90
2022-12-16T03:25:48.476Z,-4.90
2022-12-16T03:28:29.667Z,-5.00
2022-12-16T03:31:05.713Z,-5.00
2022-12-16T03:33:40.350Z,-5.00
2022-12-16T03:36:12.974Z,-5.00
2022-12-16T03:38:42.464Z,-5.10
2022-12-16T03:41:12.069Z,-5.10
2022-12-16T03:43:40.476Z,-5.00
2022-12-16T03:46:10.641Z,-5.10
2022-12-16T03:48:47.338Z,-5.10
2022-12-16T03:51:15.840Z,-5.10
2022-12-16T03:53:44.008Z,-5.10
2022-12-16T03:56:12.138Z,-5.10
2022-12-16T03:58:40.808Z,-5.10
2022-12-16T04:01:10.502Z,-5.20
2022-12-16T04:03:40.071Z,-5.20
2022-12-16T04:06:08.646Z,-5.30
2022-12-16T04:08:36.642Z,-5.30
2022-12-16T04:11:21.796Z,-5.30
2022-12-16T04:14:06.933Z,-5.40
2022-12-16T04:16:52.407Z,-5.50
2022-12-16T04:19:45.316Z,-5.50
2022-12-16T04:22:33.721Z,-5.50
2022-12-16T04:25:06.799Z,-5.50
2022-12-16T04:27:34.803Z,-5.40
2022-12-16T04:30:20.724Z,-5.40
2022-12-16T04:33:10.650Z,-5.40
2022-12-16T04:35:57.490Z,-5.50
2022-12-16T04:38:43.537Z,-5.50
2022-12-16T04:41:29.611Z,-5.50
2022-12-16T04:44:15.282Z,-5.50
2022-12-16T04:47:00.908Z,-5.50
2022-12-16T04:49:46.645Z,-5.50
2022-12-16T04:52:39.267Z,-5.50
2022-12-16T04:55:26.060Z,-5.50
2022-12-16T04:58:12.165Z,-5.50
2022-12-16T05:00:57.901Z,-5.50
2022-12-16T05:03:43.892Z,-5.50
2022-12-16T05:06:29.749Z,-5.40
2022-12-16T05:09:17.563Z,-5.30
2022-12-16T05:12:02.823Z,-5.30
2022-12-16T05:14:48.127Z,-5.30
2022-12-16T05:17:34.074Z,-5.30
2022-12-16T05:20:19.809Z,-5.40
2022-12-16T05:23:05.508Z,-5.40
2022-12-16T05:25:52.346Z,-5.40
2022-12-16T05:28:37.673Z,-5.40
2022-12-16T05:31:23.754Z,-5.50
2022-12-16T05:34:09.002Z,-5.60
2022-12-16T05:36:54.310Z,-5.70
2022-12-16T05:39:39.621Z,-5.70
2022-12-16T05:42:26.792Z,-5.80
2022-12-16T05:45:12.547Z,-5.80
2022-12-16T05:47:58.883Z,-5.80
2022-12-16T05:50:49.729Z,-5.90
2022-12-16T05:53:43.644Z,-5.90
2022-12-16T05:56:28.969Z,-5.90
2022-12-16T05:59:27.395Z,-5.90
2022-12-16T06:02:13.190Z,-5.90
2022-12-16T06:04:58.887Z,-5.90
2022-12-16T06:07:44.414Z,-5.90
2022-12-16T06:10:29.860Z,-5.90
2022-12-16T06:13:15.281Z,-5.90
2022-12-16T06:16:08.140Z,-6.00
2022-12-16T06:18:54.270Z,-5.90
2022-12-16T06:21:39.810Z,-5.90
2022-12-16T06:24:25.907Z,-5.90
2022-12-16T06:27:11.485Z,-6.00
2022-12-16T06:29:56.745Z,-6.00
2022-12-16T06:32:43.560Z,-6.10
2022-12-16T06:35:29.255Z,-6.10
2022-12-16T06:38:14.813Z,-6.10
2022-12-16T06:41:00.026Z,-6.20
2022-12-16T06:43:45.430Z,-6.20
2022-12-16T06:46:30.913Z,-6.30
2022-12-16T06:49:17.927Z,-6.30
2022-12-16T06:52:03.392Z,-6.40
2022-12-16T06:54:49.216Z,-6.40
2022-12-16T06:57:34.002Z,-6.40
2022-12-16T07:00:31.141Z,-6.40
2022-12-16T07:03:16.431Z,-6.50
2022-12-16T07:06:03.201Z,-6.50
2022-12-16T07:09:03.411Z,-6.60
2022-12-16T07:11:48.815Z,-6.60
2022-12-16T07:14:34.252Z,-6.70
2022-12-16T07:17:34.219Z,-6.70
2022-12-16T07:20:19.710Z,-6.70
2022-12-16T07:23:13.060Z,-6.80
2022-12-16T07:26:01.920Z,-6.80
2022-12-16T07:28:47.395Z,-6.80
2022-12-16T07:31:38.233Z,-6.80
2022-12-16T07:34:23.814Z,-6.80
2022-12-16T07:37:09.267Z,-6.80
2022-12-16T07:39:56.126Z,-6.80
2022-12-16T07:42:41.786Z,-6.90
2022-12-16T07:45:27.544Z,-6.90
2022-12-16T07:48:13.239Z,-6.80
2022-12-16T07:50:59.519Z,-6.80
2022-12-16T07:53:45.183Z,-6.70
2022-12-16T07:56:32.486Z,-6.60
2022-12-16T07:59:17.880Z,-6.60
2022-12-16T08:02:03.356Z,-6.50
2022-12-16T08:04:48.965Z,-6.50
2022-12-16T08:07:34.430Z,-6.40
2022-12-16T08:10:19.012Z,-6.40
2022-12-16T08:13:06.295Z,-6.30
2022-12-16T08:15:51.478Z,-6.30
2022-12-16T08:18:36.769Z,-6.30
2022-12-16T08:21:22.168Z,-6.30
2022-12-16T08:24:07.464Z,-6.20
2022-12-16T08:26:53.832Z,-6.10
2022-12-16T08:29:45.209Z,-6.10
2022-12-16T08:32:31.018Z,-6.10
2022-12-16T08:35:18.646Z,-6.00
2022-12-16T08:38:08.886Z,-6.00
2022-12-16T08:40:58.154Z,-5.90
2022-12-16T08:43:48.932Z,-5.80
2022-12-16T08:46:36.308Z,-5.70
2022-12-16T08:49:30.565Z,-5.70
2022-12-16T08:52:21.164Z,-5.60
2022-12-16T08:55:06.807Z,-5.50
2022-12-16T08:58:06.652Z,-5.60
2022-12-16T09:00:52.104Z,-5.50
2022-12-16T09:03:39.247Z,-5.50
2022-12-16T09:06:24.704Z,-5.40
2022-12-16T09:09:10.174Z,-5.30
2022-12-16T09:11:55.862Z,-5.20
2022-12-16T09:14:41.494Z,-5.10
2022-12-16T09:17:27.176Z,-5.00
2022-12-16T09:20:13.861Z,-5.00
2022-12-16T09:22:59.555Z,-4.90
2022-12-16T09:25:44.912Z,-4.80
2022-12-16T09:28:30.393Z,-4.70
2022-12-16T09:31:16.107Z,-4.60
2022-12-16T09:34:01.456Z,-4.50
2022-12-16T09:36:48.344Z,-4.40
2022-12-16T09:39:33.666Z,-4.30
2022-12-16T09:42:27.871Z,-4.20
2022-12-16T09:45:20.808Z,-4.20
2022-12-16T09:48:12.412Z,-4.00
2022-12-16T09:51:00.329Z,-3.90
2022-12-16T09:53:51.249Z,-3.80
2022-12-16T09:56:41.149Z,-3.80
2022-12-16T09:59:31.263Z,-3.70
2022-12-16T10:02:17.660Z,-3.50
2022-12-16T10:05:19.527Z,-3.40
2022-12-16T10:08:14.334Z,-3.30
2022-12-16T10:11:14.001Z,-3.20
2022-12-16T10:14:07.116Z,-3.10
2022-12-16T10:16:57.861Z,-3.00
2022-12-16T10:19:52.847Z,-2.80
2022-12-16T10:22:46.170Z,-2.70
2022-12-16T10:25:35.616Z,-2.60
2022-12-16T10:28:41.873Z,-2.40
2022-12-16T10:31:32.142Z,-2.30
2022-12-16T10:34:18.077Z,-2.10
2022-12-16T10:37:10.932Z,-2.00
2022-12-16T10:40:00.160Z,-1.80
2022-12-16T10:42:49.293Z,-1.70
2022-12-16T10:45:42.737Z,-1.50
2022-12-16T10:48:50.025Z,-1.40
2022-12-16T10:51:41.445Z,-1.40
2022-12-16T10:54:49.174Z,-1.30
2022-12-16T10:57:45.440Z,-1.20
2022-12-16T11:00:34.013Z,-1.20
2022-12-16T11:03:41.889Z,-1.10
2022-12-16T11:06:29.177Z,-1.10
2022-12-16T11:09:14.714Z,-1.00
2022-12-16T11:12:00.370Z,-1.00
2022-12-16T11:15:05.810Z,-1.00
2022-12-16T11:17:53.314Z,-0.90
2022-12-16T11:20:42.719Z,-0.80
2022-12-16T11:23:33.533Z,-0.80
2022-12-16T11:26:36.303Z,-0.60
2022-12-16T11:29:30.355Z,-0.60
2022-12-16T11:32:21.676Z,-0.60
2022-12-16T11:35:11.620Z,-0.60
2022-12-16T11:38:00.609Z,-0.60
2022-12-16T11:40:48.103Z,-0.60
2022-12-16T11:43:37.120Z,-0.50
2022-12-16T11:46:28.391Z,-0.50
2022-12-16T11:49:23.499Z,-0.40
2022-12-16T11:52:36.048Z,-0.40
2022-12-16T11:55:55.847Z,-0.40
2022-12-16T11:58:41.921Z,-0.30
2022-12-16T12:01:32.942Z,-0.30
2022-12-16T12:04:18.329Z,-0.20
2022-12-16T12:07:21.643Z,-0.20
2022-12-16T12:10:16.230Z,-0.10
2022-12-16T12:13:10.595Z,-0.10
2022-12-16T12:16:01.885Z,-0.10
2022-12-16T12:18:58.760Z,-0.10
2022-12-16T12:21:45.671Z,-0.10
2022-12-16T12:24:42.119Z,-0.20
2022-12-16T12:27:45.803Z,-0.20
2022-12-16T12:30:36.726Z,-0.20
2022-12-16T12:33:38.856Z,-0.20
2022-12-16T12:36:36.368Z,-0.10
2022-12-16T12:39:33.672Z,-0.10
2022-12-16T12:42:31.205Z,-0.10
2022-12-16T12:45:33.212Z,-0.10
2022-12-16T12:48:29.470Z,-0.10
2022-12-16T12:51:23.851Z,-0.10
2022-12-16T12:54:22.223Z,-0.10
2022-12-16T12:57:09.359Z,0.00
2022-12-16T13:00:05.905Z,0.00
2022-12-16T13:03:02.790Z,0.00
2022-12-16T13:05:52.489Z,0.00
2022-12-16T13:09:01.348Z,0.00
2022-12-16T13:11:46.988Z,0.00
2022-12-16T13:15:09.794Z,0.00
2022-12-16T13:18:27.869Z,0.10
2022-12-16T13:21:16.595Z,0.10
2022-12-16T13:24:03.857Z,0.10
2022-12-16T13:26:51.065Z,0.20
2022-12-16T13:29:39.989Z,0.20
2022-12-16T13:32:37.838Z,0.20
2022-12-16T13:35:35.055Z,0.20
2022-12-16T13:38:24.580Z,0.30
2022-12-16T13:41:16.383Z,0.30
2022-12-16T13:44:06.212Z,0.30
2022-12-16T13:47:01.018Z,0.30
2022-12-16T13:50:04.376Z,0.30
2022-12-16T13:53:01.569Z,0.40
2022-12-16T13:55:50.775Z,0.40
2022-12-16T13:58:49.261Z,0.40
2022-12-16T14:01:53.199Z,0.50
2022-12-16T14:04:48.069Z,0.40
2022-12-16T14:07:47.815Z,0.30
2022-12-16T14:10:42.878Z,0.30
2022-12-16T14:13:36.357Z,0.30
2022-12-16T14:16:32.367Z,0.30
2022-12-16T14:19:33.965Z,0.30
2022-12-16T14:22:32.259Z,0.20
2022-12-16T14:25:27.816Z,0.20
2022-12-16T14:28:13.541Z,0.20
2022-12-16T14:31:01.033Z,0.10
2022-12-16T14:33:48.507Z,0.00
2022-12-16T14:36:45.237Z,-0.10
2022-12-16T14:39:32.268Z,-0.10
2022-12-16T14:42:17.639Z,-0.20
2022-12-16T14:45:06.002Z,-0.30
2022-12-16T14:47:52.072Z,-0.30
2022-12-16T14:50:41.006Z,-0.40
2022-12-16T14:53:35.261Z,-0.50
2022-12-16T14:56:35.124Z,-0.50
2022-12-16T14:59:33.789Z,-0.60
2022-12-16T15:02:33.565Z,-0.70
2022-12-16T15:05:21.136Z,-0.70
2022-12-16T15:08:06.582Z,-0.80
2022-12-16T15:10:52.660Z,-0.90
2022-12-16T15:13:40.546Z,-0.90
2022-12-16T15:16:33.911Z,-1.00
2022-12-16T15:19:21.284Z,-1.00
2022-12-16T15:22:04.585Z,-1.10
2022-12-16T15:24:54.304Z,-1.10
2022-12-16T15:27:44.523Z,-1.20
2022-12-16T15:31:06.744Z,-1.30
2022-12-16T15:33:53.943Z,-1.40
2022-12-16T15:36:48.742Z,-1.40
2022-12-16T15:39:44.942Z,-1.50
2022-12-16T15:42:39.606Z,-1.60
2022-12-16T15:45:35.477Z,-1.60
2022-12-16T15:48:30.469Z,-1.70
2022-12-16T15:51:16.137Z,-1.70
2022-12-16T15:54:04.572Z,-1.80
2022-12-16T15:57:03.807Z,-1.90
2022-12-16T15:59:51.233Z,-1.90
2022-12-16T16:02:40.128Z,-2.00
2022-12-16T16:05:31.092Z,-2.00
2022-12-16T16:08:16.300Z,-2.10
2022-12-16T16:11:02.503Z,-2.10
2022-12-16T16:13:49.518Z,-2.20
2022-12-16T16:16:35.503Z,-2.30
2022-12-16T16:19:21.121Z,-2.30
2022-12-16T16:22:06.310Z,-2.40
2022-12-16T16:24:51.967Z,-2.40
2022-12-16T16:27:38.180Z,-2.60
2022-12-16T16:30:28.817Z,-2.60
2022-12-16T16:33:15.135Z,-2.60
2022-12-16T16:36:00.706Z,-2.60
2022-12-16T16:38:46.197Z,-2.60
2022-12-16T16:41:33.597Z,-2.70
2022-12-16T16:44:20.034Z,-2.70
2022-12-16T16:47:07.218Z,-2.70
2022-12-16T16:49:56.210Z,-2.80
2022-12-16T16:52:43.734Z,-2.80
2022-12-16T16:55:34.322Z,-2.80
2022-12-16T16:58:23.728Z,-2.80
2022-12-16T17:01:09.384Z,-2.90
2022-12-16T17:03:56.114Z,-3.00
2022-12-16T17:06:41.545Z,-3.00
2022-12-16T17:09:27.037Z,-3.00
2022-12-16T17:12:12.448Z,-3.10
2022-12-16T17:14:57.933Z,-3.10
2022-12-16T17:17:43.530Z,-3.20
2022-12-16T17:20:33.517Z,-3.20
2022-12-16T17:23:18.753Z,-3.20
2022-12-16T17:26:04.347Z,-3.20
2022-12-16T17:28:49.693Z,-3.20
2022-12-16T17:31:37.470Z,-3.30
2022-12-16T17:34:23.122Z,-3.20
2022-12-16T17:37:10.012Z,-3.30
2022-12-16T17:39:55.268Z,-3.30
2022-12-16T17:42:44.688Z,-3.30
2022-12-16T17:45:31.938Z,-3.30
2022-12-16T17:48:17.438Z,-3.30
2022-12-16T17:51:02.797Z,-3.40
2022-12-16T17:53:54.521Z,-3.40
2022-12-16T17:56:42.893Z,-3.50
2022-12-16T17:59:28.442Z,-3.40
2022-12-16T18:02:14.201Z,-3.50
2022-12-16T18:04:59.518Z,-3.50
2022-12-16T18:07:45.074Z,-3.50
2022-12-16T18:10:31.986Z,-3.50
2022-12-16T18:13:17.180Z,-3.50
2022-12-16T18:16:02.576Z,-3.50
2022-12-16T18:18:47.867Z,-3.50
2022-12-16T18:21:33.610Z,-3.60
2022-12-16T18:24:23.527Z,-3.60
2022-12-16T18:27:10.396Z,-3.60
2022-12-16T18:29:55.633Z,-3.70
2022-12-16T18:32:41.239Z,-3.70
2022-12-16T18:35:27.097Z,-3.70
2022-12-16T18:38:16.413Z,-3.80
2022-12-16T18:41:05.133Z,-3.80
2022-12-16T18:43:52.035Z,-3.80
2022-12-16T18:46:37.202Z,-3.80
2022-12-16T18:49:22.762Z,-3.70
2022-12-16T18:52:08.531Z,-3.70
2022-12-16T18:54:54.058Z,-3.80
2022-12-16T18:57:42.394Z,-3.80
2022-12-16T19:00:30.672Z,-3.90
2022-12-16T19:03:16.125Z,-3.90
2022-12-16T19:06:01.460Z,-4.00
2022-12-16T19:08:53.944Z,-3.90
2022-12-16T19:11:39.522Z,-4.00
2022-12-16T19:14:24.837Z,-4.00
2022-12-16T19:17:11.678Z,-4.00
2022-12-16T19:19:57.202Z,-4.00
2022-12-16T19:22:42.758Z,-4.10
2022-12-16T19:25:28.090Z,-4.00
2022-12-16T19:28:13.591Z,-4.00
2022-12-16T19:30:56.411Z,-4.00
2022-12-16T19:33:43.088Z,-4.10
2022-12-16T19:36:28.714Z,-4.10
2022-12-16T19:39:13.932Z,-4.20
2022-12-16T19:41:59.442Z,-4.10
2022-12-16T19:44:44.811Z,-4.10
2022-12-16T19:47:29.961Z,-4.10
2022-12-16T19:50:16.931Z,-4.10
2022-12-16T19:53:02.448Z,-4.10
2022-12-16T19:55:48.181Z,-4.20
2022-12-16T19:58:37.704Z,-4.20
2022-12-16T20:04:29.194Z,-4.30
2022-12-16T20:07:17.778Z,-4.30
2022-12-16T20:10:06.930Z,-4.30
2022-12-16T20:13:07.169Z,-4.40
2022-12-16T20:15:52.881Z,-3.60
2022-12-16T20:18:41.990Z,-4.50
2022-12-16T20:21:27.270Z,-4.50
2022-12-16T20:24:14.194Z,-4.50
2022-12-16T20:26:59.743Z,-4.60
2022-12-16T20:29:44.244Z,-4.70
2022-12-16T20:32:26.073Z,-4.70
2022-12-16T20:35:11.517Z,-4.70
2022-12-16T20:37:57.005Z,-4.70
2022-12-16T20:40:43.945Z,-4.70
2022-12-16T20:43:30.455Z,-4.80
2022-12-16T20:46:15.936Z,-4.80
2022-12-16T20:49:01.216Z,-4.80
2022-12-16T20:51:46.521Z,-4.80
2022-12-16T20:54:32.065Z,-4.80
2022-12-16T20:57:18.863Z,-4.80
2022-12-16T21:00:04.661Z,-4.80
2022-12-16T21:02:50.347Z,-4.80
2022-12-16T21:05:35.643Z,-4.90
2022-12-16T21:08:21.236Z,-4.90
2022-12-16T21:11:07.108Z,-4.90
2022-12-16T21:13:56.442Z,-4.90
2022-12-16T21:16:41.994Z,-4.90
2022-12-16T21:19:33.099Z,-5.00
2022-12-16T21:22:19.121Z,-5.00
2022-12-16T21:25:04.557Z,-5.10
2022-12-16T21:27:50.176Z,-5.10
2022-12-16T21:30:36.996Z,-5.20
2022-12-16T21:33:22.433Z,-5.20
2022-12-16T21:36:10.936Z,-5.30
2022-12-16T21:39:08.328Z,-5.30
2022-12-16T21:42:00.135Z,-5.30
2022-12-16T21:44:45.723Z,-5.40
2022-12-16T21:47:32.641Z,-5.40
2022-12-16T21:50:18.193Z,-5.50
2022-12-16T21:53:06.690Z,-5.50
2022-12-16T21:55:52.016Z,-5.50
2022-12-16T21:58:43.357Z,-5.50
2022-12-16T22:01:29.101Z,-5.50
2022-12-16T22:04:15.792Z,-5.60
2022-12-16T22:07:01.209Z,-5.60
2022-12-16T22:09:46.743Z,-5.70
2022-12-16T22:12:32.924Z,-5.70
2022-12-16T22:15:18.575Z,-5.80
2022-12-16T22:18:04.058Z,-5.80
2022-12-16T22:20:50.608Z,-5.80
2022-12-16T22:23:37.198Z,-5.90
2022-12-16T22:26:25.374Z,-5.90
2022-12-16T22:29:10.977Z,-5.90
2022-12-16T22:31:56.472Z,-6.00
2022-12-16T22:34:41.899Z,-6.00
2022-12-16T22:37:36.935Z,-6.00
2022-12-16T22:40:22.979Z,-6.10
2022-12-16T22:43:08.202Z,-6.10
2022-12-16T22:46:08.102Z,-6.10
2022-12-16T22:48:53.683Z,-6.10
2022-12-16T22:51:56.885Z,-6.20
2022-12-16T22:54:43.820Z,-6.20
2022-12-16T22:57:29.425Z,-6.20
2022-12-16T23:00:14.205Z,-6.30
2022-12-16T23:02:59.664Z,-6.30
2022-12-16T23:05:45.062Z,-6.30
2022-12-16T23:08:32.595Z,-6.30
2022-12-16T23:11:19.402Z,-6.20
2022-12-16T23:14:05.059Z,-6.20
2022-12-16T23:16:50.680Z,-6.20
2022-12-16T23:19:36.125Z,-6.20
2022-12-16T23:22:21.522Z,-6.20
2022-12-16T23:25:06.791Z,-6.30
2022-12-16T23:27:53.386Z,-6.20
2022-12-16T23:30:38.954Z,-6.30
2022-12-16T23:33:24.449Z,-6.30
2022-12-16T23:36:09.931Z,-6.30
2022-12-16T23:38:55.596Z,-6.30
2022-12-16T23:41:42.039Z,-6.30
2022-12-16T23:44:28.947Z,-6.30
2022-12-16T23:47:14.397Z,-6.30
2022-12-16T23:49:59.992Z,-6.40
2022-12-16T23:52:45.346Z,-6.40
2022-12-16T23:55:30.736Z,-6.40
2022-12-16T23:58:19.042Z,-6.50
